AFL1258 UWOO-UUEE
Flight info
| Callsign | AFL1258 |
|---|---|
| Flight time | 2h 1m |
| Altitude | 38000 |
| Route | PIMAM5C PIMAM M162 PODUT T750 OKSUD T787 OTKOL T784 LARNO T291 URIDU L158 DIMGI DIMGI3W |
| Aircraft | A20N/M-SDE2E3FGHIRWXY/LB1 |
Departure
| Time | 2026-05-07 15:55 |
|---|---|
| Airport | Orenburg Central Airport (UWOO) |
Arrival
| Time | 2026-05-07 17:56 |
|---|---|
| Airport | Sheremetyevo International Airport (UUEE) |
| Time | Latitude | Longitude | Altitude | Speed | Heading |
|---|---|---|---|---|---|
| 2026-05-07 15:33 | 51.79225 | 55.45750 | 372 ft | 0 kts | 179° |
| 2026-05-07 15:46 | 51.79254 | 55.45739 | 372 ft | 2 kts | 153° |
| 2026-05-07 15:46 | 51.79267 | 55.45727 | 372 ft | 2 kts | 141° |
| 2026-05-07 15:46 | 51.79278 | 55.45710 | 372 ft | 2 kts | 128° |
| 2026-05-07 15:47 | 51.79287 | 55.45690 | 372 ft | 2 kts | 116° |
| 2026-05-07 15:47 | 51.79292 | 55.45667 | 372 ft | 2 kts | 104° |
| 2026-05-07 15:47 | 51.79295 | 55.45644 | 372 ft | 2 kts | 92° |
| 2026-05-07 15:47 | 51.79295 | 55.45631 | 372 ft | 0 kts | 86° |
| 2026-05-07 15:49 | 51.79297 | 55.45674 | 372 ft | 6 kts | 78° |
| 2026-05-07 15:50 | 51.79346 | 55.45718 | 372 ft | 9 kts | 1° |
| 2026-05-07 15:50 | 51.79413 | 55.45719 | 374 ft | 9 kts | 359° |
| 2026-05-07 15:50 | 51.79476 | 55.45718 | 375 ft | 8 kts | 359° |
| 2026-05-07 15:50 | 51.79538 | 55.45717 | 375 ft | 9 kts | 355° |
| 2026-05-07 15:51 | 51.79579 | 55.45648 | 376 ft | 10 kts | 276° |
| 2026-05-07 15:51 | 51.79579 | 55.45490 | 376 ft | 19 kts | 269° |
| 2026-05-07 15:51 | 51.79580 | 55.45205 | 375 ft | 30 kts | 270° |
| 2026-05-07 15:51 | 51.79578 | 55.44838 | 377 ft | 31 kts | 270° |
| 2026-05-07 15:52 | 51.79577 | 55.44497 | 379 ft | 28 kts | 271° |
| 2026-05-07 15:52 | 51.79579 | 55.44186 | 379 ft | 27 kts | 270° |
| 2026-05-07 15:52 | 51.79569 | 55.43971 | 379 ft | 11 kts | 235° |
| 2026-05-07 15:52 | 51.79561 | 55.43886 | 378 ft | 5 kts | 349° |
| 2026-05-07 15:53 | 51.79578 | 55.43939 | 379 ft | 6 kts | 84° |
| 2026-05-07 15:53 | 51.79579 | 55.44041 | 379 ft | 15 kts | 90° |
| 2026-05-07 15:53 | 51.79579 | 55.44281 | 379 ft | 27 kts | 90° |
| 2026-05-07 15:53 | 51.79579 | 55.44635 | 377 ft | 32 kts | 89° |
| 2026-05-07 15:54 | 51.79580 | 55.44981 | 376 ft | 31 kts | 89° |
| 2026-05-07 15:54 | 51.79582 | 55.45651 | 376 ft | 93 kts | 90° |
| 2026-05-07 15:54 | 51.79582 | 55.47017 | 377 ft | 149 kts | 89° |
| 2026-05-07 15:54 | 51.79574 | 55.48747 | 891 ft | 150 kts | 89° |
| 2026-05-07 15:55 | 51.79558 | 55.50397 | 1502 ft | 151 kts | 90° |
| 2026-05-07 15:55 | 51.79516 | 55.52105 | 2101 ft | 155 kts | 87° |
| 2026-05-07 15:55 | 51.79493 | 55.53937 | 2510 ft | 173 kts | 89° |
| 2026-05-07 15:55 | 51.79498 | 55.55953 | 2925 ft | 191 kts | 86° |
| 2026-05-07 15:56 | 51.79543 | 55.58255 | 3197 ft | 220 kts | 87° |
| 2026-05-07 15:56 | 51.79752 | 55.60698 | 3978 ft | 224 kts | 63° |
| 2026-05-07 15:56 | 51.80807 | 55.62481 | 4843 ft | 230 kts | 27° |
| 2026-05-07 15:56 | 51.82370 | 55.62895 | 5682 ft | 238 kts | 358° |
| 2026-05-07 15:57 | 51.84011 | 55.62226 | 6325 ft | 254 kts | 336° |
| 2026-05-07 15:57 | 51.85384 | 55.60299 | 6788 ft | 277 kts | 301° |
| 2026-05-07 15:57 | 51.86039 | 55.57339 | 7351 ft | 291 kts | 281° |
| 2026-05-07 15:57 | 51.86306 | 55.54039 | 8071 ft | 299 kts | 275° |
| 2026-05-07 15:58 | 51.86465 | 55.50701 | 8870 ft | 302 kts | 274° |
| 2026-05-07 15:58 | 51.86614 | 55.47321 | 9684 ft | 304 kts | 274° |
| 2026-05-07 15:58 | 51.86776 | 55.43918 | 10380 ft | 311 kts | 274° |
| 2026-05-07 15:58 | 51.86956 | 55.40361 | 10782 ft | 327 kts | 274° |
| 2026-05-07 15:59 | 51.87152 | 55.36608 | 11120 ft | 345 kts | 274° |
| 2026-05-07 15:59 | 51.87380 | 55.32683 | 11524 ft | 360 kts | 278° |
| 2026-05-07 15:59 | 51.88195 | 55.28844 | 12150 ft | 364 kts | 302° |
| 2026-05-07 15:59 | 51.89657 | 55.25577 | 12914 ft | 364 kts | 310° |
| 2026-05-07 16:00 | 51.91265 | 55.22386 | 13582 ft | 369 kts | 310° |
| 2026-05-07 16:00 | 51.92858 | 55.19145 | 14237 ft | 373 kts | 309° |
| 2026-05-07 16:00 | 51.94430 | 55.15798 | 14909 ft | 377 kts | 308° |
| 2026-05-07 16:00 | 51.95993 | 55.12353 | 15563 ft | 381 kts | 307° |
| 2026-05-07 16:01 | 51.97544 | 55.08867 | 16192 ft | 384 kts | 307° |
| 2026-05-07 16:01 | 51.99084 | 55.05368 | 16808 ft | 388 kts | 307° |
| 2026-05-07 16:01 | 52.00639 | 55.01815 | 17409 ft | 391 kts | 307° |
| 2026-05-07 16:01 | 52.02222 | 54.98188 | 17990 ft | 395 kts | 307° |
| 2026-05-07 16:02 | 52.03808 | 54.94549 | 18557 ft | 399 kts | 308° |
| 2026-05-07 16:02 | 52.05419 | 54.90845 | 19145 ft | 401 kts | 308° |
| 2026-05-07 16:02 | 52.07011 | 54.87180 | 19684 ft | 405 kts | 309° |
| 2026-05-07 16:02 | 52.08702 | 54.83453 | 20224 ft | 407 kts | 310° |
| 2026-05-07 16:03 | 52.10403 | 54.79799 | 20754 ft | 411 kts | 310° |
| 2026-05-07 16:03 | 52.12149 | 54.76083 | 21289 ft | 413 kts | 311° |
| 2026-05-07 16:03 | 52.13887 | 54.72368 | 21783 ft | 417 kts | 311° |
| 2026-05-07 16:03 | 52.15620 | 54.68639 | 22269 ft | 420 kts | 311° |
| 2026-05-07 16:04 | 52.17390 | 54.64814 | 22773 ft | 423 kts | 311° |
| 2026-05-07 16:04 | 52.19142 | 54.61010 | 23280 ft | 425 kts | 311° |
| 2026-05-07 16:04 | 52.20917 | 54.57146 | 23782 ft | 428 kts | 311° |
| 2026-05-07 16:04 | 52.22689 | 54.53281 | 24257 ft | 430 kts | 311° |
| 2026-05-07 16:05 | 52.24490 | 54.49340 | 24702 ft | 434 kts | 311° |
| 2026-05-07 16:05 | 52.26299 | 54.45377 | 25120 ft | 437 kts | 310° |
| 2026-05-07 16:05 | 52.28104 | 54.41420 | 25559 ft | 439 kts | 310° |
| 2026-05-07 16:05 | 52.29903 | 54.37442 | 25985 ft | 442 kts | 309° |
| 2026-05-07 16:06 | 52.31625 | 54.33263 | 26377 ft | 446 kts | 304° |
| 2026-05-07 16:06 | 52.33189 | 54.28891 | 26756 ft | 450 kts | 301° |
| 2026-05-07 16:06 | 52.34647 | 54.24323 | 27119 ft | 453 kts | 299° |
| 2026-05-07 16:06 | 52.36059 | 54.19758 | 27466 ft | 456 kts | 299° |
| 2026-05-07 16:07 | 52.37484 | 54.15127 | 27854 ft | 458 kts | 299° |
| 2026-05-07 16:07 | 52.38917 | 54.10471 | 28227 ft | 459 kts | 299° |
| 2026-05-07 16:07 | 52.40353 | 54.05809 | 28596 ft | 461 kts | 299° |
| 2026-05-07 16:07 | 52.41790 | 54.01150 | 28934 ft | 462 kts | 299° |
| 2026-05-07 16:08 | 52.43233 | 53.96467 | 29379 ft | 461 kts | 299° |
| 2026-05-07 16:08 | 52.44662 | 53.91820 | 29872 ft | 459 kts | 299° |
| 2026-05-07 16:08 | 52.46096 | 53.87156 | 30341 ft | 458 kts | 299° |
| 2026-05-07 16:08 | 52.47524 | 53.82502 | 30748 ft | 457 kts | 298° |
| 2026-05-07 16:09 | 52.48944 | 53.77867 | 31115 ft | 456 kts | 298° |
| 2026-05-07 16:09 | 52.50356 | 53.73249 | 31496 ft | 455 kts | 298° |
| 2026-05-07 16:09 | 52.51763 | 53.68638 | 31889 ft | 454 kts | 298° |
| 2026-05-07 16:09 | 52.53177 | 53.63996 | 32252 ft | 453 kts | 298° |
| 2026-05-07 16:10 | 52.54562 | 53.59436 | 32582 ft | 452 kts | 298° |
| 2026-05-07 16:10 | 52.55972 | 53.54786 | 32930 ft | 451 kts | 298° |
| 2026-05-07 16:10 | 52.57357 | 53.50210 | 33253 ft | 451 kts | 297° |
| 2026-05-07 16:10 | 52.58749 | 53.45598 | 33558 ft | 450 kts | 297° |
| 2026-05-07 16:11 | 52.60123 | 53.41040 | 33854 ft | 449 kts | 297° |
| 2026-05-07 16:11 | 52.61508 | 53.36433 | 34151 ft | 449 kts | 297° |
| 2026-05-07 16:11 | 52.62872 | 53.31887 | 34435 ft | 448 kts | 296° |
| 2026-05-07 16:11 | 52.64246 | 53.27280 | 34672 ft | 447 kts | 296° |
| 2026-05-07 16:12 | 52.65602 | 53.22734 | 34862 ft | 447 kts | 296° |
| 2026-05-07 16:12 | 52.66976 | 53.18128 | 35073 ft | 446 kts | 296° |
| 2026-05-07 16:12 | 52.68327 | 53.13596 | 35282 ft | 445 kts | 296° |
| 2026-05-07 16:12 | 52.69693 | 53.09007 | 35496 ft | 443 kts | 296° |
| 2026-05-07 16:13 | 52.71021 | 53.04539 | 35696 ft | 442 kts | 296° |
| 2026-05-07 16:13 | 52.72358 | 53.00028 | 35887 ft | 441 kts | 296° |
| 2026-05-07 16:13 | 52.73697 | 52.95496 | 36046 ft | 441 kts | 296° |
| 2026-05-07 16:13 | 52.75037 | 52.90954 | 36174 ft | 441 kts | 296° |
| 2026-05-07 16:14 | 52.76364 | 52.86453 | 36391 ft | 440 kts | 296° |
| 2026-05-07 16:14 | 52.77695 | 52.81929 | 36602 ft | 438 kts | 296° |
| 2026-05-07 16:14 | 52.79017 | 52.77424 | 36819 ft | 437 kts | 296° |
| 2026-05-07 16:14 | 52.80334 | 52.72926 | 37008 ft | 436 kts | 296° |
| 2026-05-07 16:15 | 52.81645 | 52.68442 | 37212 ft | 436 kts | 296° |
| 2026-05-07 16:15 | 52.82954 | 52.63957 | 37370 ft | 436 kts | 296° |
| 2026-05-07 16:15 | 52.84268 | 52.59444 | 37521 ft | 435 kts | 296° |
| 2026-05-07 16:15 | 52.85589 | 52.54899 | 37643 ft | 436 kts | 296° |
| 2026-05-07 16:16 | 52.86897 | 52.50393 | 37735 ft | 436 kts | 297° |
| 2026-05-07 16:16 | 52.88203 | 52.45878 | 37843 ft | 437 kts | 297° |
| 2026-05-07 16:16 | 52.89511 | 52.41359 | 37888 ft | 437 kts | 297° |
| 2026-05-07 16:17 | 52.92114 | 52.32325 | 37894 ft | 436 kts | 296° |
| 2026-05-07 16:17 | 52.94696 | 52.23302 | 37894 ft | 437 kts | 296° |
| 2026-05-07 16:18 | 52.97279 | 52.14263 | 37894 ft | 435 kts | 296° |
| 2026-05-07 16:18 | 52.99846 | 52.05253 | 37890 ft | 433 kts | 296° |
| 2026-05-07 16:19 | 53.02413 | 51.96203 | 37891 ft | 433 kts | 296° |
| 2026-05-07 16:19 | 53.04955 | 51.87192 | 37899 ft | 433 kts | 296° |
| 2026-05-07 16:20 | 53.07488 | 51.78176 | 37898 ft | 433 kts | 296° |
| 2026-05-07 16:20 | 53.10018 | 51.69136 | 37894 ft | 433 kts | 296° |
| 2026-05-07 16:21 | 53.12571 | 51.60078 | 37898 ft | 433 kts | 296° |
| 2026-05-07 16:21 | 53.15096 | 51.51040 | 37909 ft | 433 kts | 296° |
| 2026-05-07 16:22 | 53.17598 | 51.41993 | 37913 ft | 432 kts | 296° |
| 2026-05-07 16:22 | 53.20107 | 51.32915 | 37885 ft | 431 kts | 295° |
| 2026-05-07 16:23 | 53.22588 | 51.23886 | 37868 ft | 431 kts | 295° |
| 2026-05-07 16:23 | 53.25073 | 51.14798 | 37865 ft | 430 kts | 295° |
| 2026-05-07 16:24 | 53.27541 | 51.05745 | 37863 ft | 430 kts | 295° |
| 2026-05-07 16:24 | 53.29988 | 50.96729 | 37866 ft | 429 kts | 295° |
| 2026-05-07 16:25 | 53.32429 | 50.87703 | 37864 ft | 429 kts | 295° |
| 2026-05-07 16:25 | 53.34866 | 50.78659 | 37866 ft | 429 kts | 295° |
| 2026-05-07 16:26 | 53.37304 | 50.69573 | 37879 ft | 429 kts | 295° |
| 2026-05-07 16:26 | 53.39734 | 50.60476 | 37877 ft | 429 kts | 295° |
| 2026-05-07 16:27 | 53.42151 | 50.51395 | 37882 ft | 428 kts | 295° |
| 2026-05-07 16:27 | 53.44547 | 50.42348 | 37888 ft | 427 kts | 295° |
| 2026-05-07 16:28 | 53.46940 | 50.33273 | 37898 ft | 427 kts | 294° |
| 2026-05-07 16:28 | 53.49325 | 50.24188 | 37897 ft | 426 kts | 295° |
| 2026-05-07 16:29 | 53.52033 | 50.15429 | 37891 ft | 424 kts | 301° |
| 2026-05-07 16:29 | 53.55235 | 50.07124 | 37906 ft | 424 kts | 304° |
| 2026-05-07 16:30 | 53.58518 | 49.98924 | 37906 ft | 423 kts | 304° |
| 2026-05-07 16:30 | 53.61769 | 49.90768 | 37906 ft | 423 kts | 304° |
| 2026-05-07 16:31 | 53.65035 | 49.82534 | 37919 ft | 422 kts | 304° |
| 2026-05-07 16:31 | 53.68262 | 49.74363 | 37905 ft | 422 kts | 304° |
| 2026-05-07 16:32 | 53.71502 | 49.66132 | 37897 ft | 422 kts | 304° |
| 2026-05-07 16:32 | 53.74736 | 49.57885 | 37894 ft | 422 kts | 304° |
| 2026-05-07 16:33 | 53.77947 | 49.49675 | 37886 ft | 422 kts | 304° |
| 2026-05-07 16:33 | 53.81169 | 49.41416 | 37892 ft | 422 kts | 304° |
| 2026-05-07 16:34 | 53.84382 | 49.33149 | 37898 ft | 422 kts | 303° |
| 2026-05-07 16:34 | 53.87600 | 49.24812 | 37894 ft | 423 kts | 303° |
| 2026-05-07 16:35 | 53.90799 | 49.16513 | 37894 ft | 423 kts | 303° |
| 2026-05-07 16:35 | 53.93998 | 49.08196 | 37900 ft | 424 kts | 303° |
| 2026-05-07 16:36 | 53.97190 | 48.99859 | 37899 ft | 424 kts | 303° |
| 2026-05-07 16:36 | 54.00392 | 48.91467 | 37900 ft | 423 kts | 303° |
| 2026-05-07 16:37 | 54.03581 | 48.83083 | 37891 ft | 422 kts | 303° |
| 2026-05-07 16:37 | 54.06735 | 48.74765 | 37906 ft | 421 kts | 303° |
| 2026-05-07 16:38 | 54.09895 | 48.66399 | 37906 ft | 421 kts | 303° |
| 2026-05-07 16:38 | 54.13054 | 48.58070 | 37915 ft | 421 kts | 303° |
| 2026-05-07 16:39 | 54.16220 | 48.49676 | 37919 ft | 421 kts | 303° |
| 2026-05-07 16:39 | 54.19363 | 48.41278 | 37925 ft | 421 kts | 303° |
| 2026-05-07 16:40 | 54.22502 | 48.32844 | 37921 ft | 421 kts | 302° |
| 2026-05-07 16:40 | 54.25602 | 48.24466 | 37924 ft | 421 kts | 302° |
| 2026-05-07 16:41 | 54.28656 | 48.15953 | 37933 ft | 420 kts | 300° |
| 2026-05-07 16:41 | 54.31632 | 48.07387 | 37931 ft | 420 kts | 300° |
| 2026-05-07 16:42 | 54.34611 | 47.98796 | 37930 ft | 419 kts | 300° |
| 2026-05-07 16:42 | 54.37568 | 47.90255 | 37930 ft | 419 kts | 300° |
| 2026-05-07 16:43 | 54.40519 | 47.81711 | 37930 ft | 420 kts | 300° |
| 2026-05-07 16:43 | 54.43479 | 47.73107 | 37923 ft | 421 kts | 300° |
| 2026-05-07 16:44 | 54.46446 | 47.64457 | 37926 ft | 421 kts | 300° |
| 2026-05-07 16:44 | 54.49402 | 47.55810 | 37927 ft | 420 kts | 300° |
| 2026-05-07 16:45 | 54.52335 | 47.47197 | 37929 ft | 420 kts | 300° |
| 2026-05-07 16:45 | 54.55272 | 47.38538 | 37936 ft | 420 kts | 300° |
| 2026-05-07 16:46 | 54.58198 | 47.29869 | 37939 ft | 420 kts | 299° |
| 2026-05-07 16:46 | 54.61109 | 47.21204 | 37937 ft | 420 kts | 300° |
| 2026-05-07 16:47 | 54.64029 | 47.12495 | 37936 ft | 421 kts | 300° |
| 2026-05-07 16:47 | 54.66953 | 47.03751 | 37930 ft | 420 kts | 300° |
| 2026-05-07 16:48 | 54.69814 | 46.95033 | 37933 ft | 420 kts | 299° |
| 2026-05-07 16:48 | 54.72652 | 46.86236 | 37929 ft | 420 kts | 299° |
| 2026-05-07 16:49 | 54.75490 | 46.77423 | 37925 ft | 420 kts | 299° |
| 2026-05-07 16:49 | 54.78315 | 46.68625 | 37927 ft | 420 kts | 299° |
| 2026-05-07 16:50 | 54.81229 | 46.59875 | 37932 ft | 421 kts | 303° |
| 2026-05-07 16:50 | 54.84627 | 46.51630 | 37940 ft | 421 kts | 308° |
| 2026-05-07 16:51 | 54.88222 | 46.43725 | 37930 ft | 421 kts | 308° |
| 2026-05-07 16:51 | 54.91836 | 46.35771 | 37928 ft | 421 kts | 308° |
| 2026-05-07 16:52 | 54.95435 | 46.27785 | 37923 ft | 421 kts | 307° |
| 2026-05-07 16:52 | 54.99021 | 46.19796 | 37924 ft | 421 kts | 307° |
| 2026-05-07 16:53 | 55.02620 | 46.11770 | 37927 ft | 420 kts | 307° |
| 2026-05-07 16:53 | 55.06189 | 46.03786 | 37924 ft | 420 kts | 307° |
| 2026-05-07 16:54 | 55.09761 | 45.95768 | 37922 ft | 420 kts | 307° |
| 2026-05-07 16:54 | 55.13353 | 45.87733 | 37923 ft | 420 kts | 307° |
| 2026-05-07 16:55 | 55.16912 | 45.79738 | 37923 ft | 419 kts | 307° |
| 2026-05-07 16:55 | 55.20507 | 45.71606 | 37919 ft | 425 kts | 307° |
| 2026-05-07 16:56 | 55.24116 | 45.63403 | 37914 ft | 431 kts | 307° |
| 2026-05-07 16:56 | 55.29608 | 45.50863 | 37916 ft | 438 kts | 307° |
| 2026-05-07 16:57 | 55.33326 | 45.42339 | 37909 ft | 440 kts | 307° |
| 2026-05-07 16:57 | 55.36982 | 45.33928 | 37913 ft | 429 kts | 306° |
| 2026-05-07 16:58 | 55.40558 | 45.25639 | 37916 ft | 427 kts | 306° |
| 2026-05-07 16:58 | 55.44134 | 45.17339 | 37907 ft | 428 kts | 306° |
| 2026-05-07 16:59 | 55.47720 | 45.08992 | 37907 ft | 433 kts | 306° |
| 2026-05-07 16:59 | 55.51360 | 45.00481 | 37905 ft | 435 kts | 305° |
| 2026-05-07 17:00 | 55.54417 | 44.91318 | 37906 ft | 435 kts | 294° |
| 2026-05-07 17:00 | 55.56442 | 44.81285 | 37891 ft | 435 kts | 284° |
| 2026-05-07 17:01 | 55.57359 | 44.70770 | 37881 ft | 436 kts | 274° |
| 2026-05-07 17:01 | 55.57648 | 44.60163 | 37886 ft | 437 kts | 273° |
| 2026-05-07 17:02 | 55.57901 | 44.49452 | 37893 ft | 438 kts | 274° |
| 2026-05-07 17:02 | 55.58154 | 44.38739 | 37898 ft | 438 kts | 274° |
| 2026-05-07 17:03 | 55.58403 | 44.27977 | 37899 ft | 439 kts | 273° |
| 2026-05-07 17:03 | 55.58640 | 44.17378 | 37880 ft | 429 kts | 273° |
| 2026-05-07 17:04 | 55.58866 | 44.06895 | 37889 ft | 428 kts | 273° |
| 2026-05-07 17:04 | 55.59082 | 43.96389 | 37896 ft | 429 kts | 273° |
| 2026-05-07 17:05 | 55.59633 | 43.85938 | 37889 ft | 428 kts | 281° |
| 2026-05-07 17:05 | 55.61054 | 43.75813 | 37883 ft | 427 kts | 289° |
| 2026-05-07 17:06 | 55.63338 | 43.66180 | 37889 ft | 428 kts | 298° |
| 2026-05-07 17:06 | 55.66246 | 43.57056 | 37876 ft | 428 kts | 300° |
| 2026-05-07 17:07 | 55.69244 | 43.47912 | 37887 ft | 428 kts | 300° |
| 2026-05-07 17:07 | 55.72196 | 43.38834 | 37874 ft | 428 kts | 300° |
| 2026-05-07 17:08 | 55.75132 | 43.29721 | 37865 ft | 428 kts | 298° |
| 2026-05-07 17:08 | 55.77641 | 43.20148 | 37856 ft | 428 kts | 290° |
| 2026-05-07 17:09 | 55.79414 | 43.10079 | 37846 ft | 429 kts | 283° |
| 2026-05-07 17:09 | 55.80430 | 42.99679 | 37848 ft | 430 kts | 276° |
| 2026-05-07 17:10 | 55.81034 | 42.89148 | 37848 ft | 430 kts | 276° |
| 2026-05-07 17:10 | 55.81614 | 42.78643 | 37846 ft | 429 kts | 276° |
| 2026-05-07 17:11 | 55.82193 | 42.68080 | 37853 ft | 433 kts | 276° |
| 2026-05-07 17:11 | 55.82769 | 42.57471 | 37856 ft | 437 kts | 275° |
| 2026-05-07 17:12 | 55.83345 | 42.46673 | 37852 ft | 440 kts | 275° |
| 2026-05-07 17:12 | 55.83913 | 42.35861 | 37854 ft | 442 kts | 276° |
| 2026-05-07 17:13 | 55.84473 | 42.24975 | 37849 ft | 444 kts | 275° |
| 2026-05-07 17:13 | 55.85027 | 42.14061 | 37851 ft | 446 kts | 275° |
| 2026-05-07 17:14 | 55.85573 | 42.03127 | 37850 ft | 447 kts | 275° |
| 2026-05-07 17:14 | 55.86113 | 41.92075 | 37850 ft | 448 kts | 275° |
| 2026-05-07 17:15 | 55.86583 | 41.81097 | 37852 ft | 448 kts | 272° |
| 2026-05-07 17:15 | 55.86512 | 41.70066 | 37859 ft | 447 kts | 268° |
| 2026-05-07 17:16 | 55.86187 | 41.59071 | 37863 ft | 446 kts | 268° |
| 2026-05-07 17:16 | 55.85849 | 41.48114 | 37861 ft | 445 kts | 268° |
| 2026-05-07 17:17 | 55.85504 | 41.37188 | 37863 ft | 445 kts | 268° |
| 2026-05-07 17:17 | 55.85154 | 41.26266 | 37863 ft | 445 kts | 266° |
| 2026-05-07 17:18 | 55.84789 | 41.15267 | 37852 ft | 445 kts | 266° |
| 2026-05-07 17:18 | 55.84420 | 41.04414 | 37859 ft | 445 kts | 267° |
| 2026-05-07 17:19 | 55.84037 | 40.93471 | 37857 ft | 444 kts | 267° |
| 2026-05-07 17:19 | 55.83648 | 40.82568 | 37869 ft | 444 kts | 267° |
| 2026-05-07 17:20 | 55.83247 | 40.71637 | 37637 ft | 444 kts | 267° |
| 2026-05-07 17:20 | 55.83042 | 40.66195 | 37273 ft | 442 kts | 267° |
| 2026-05-07 17:20 | 55.82835 | 40.60784 | 36778 ft | 442 kts | 267° |
| 2026-05-07 17:21 | 55.82617 | 40.55296 | 36289 ft | 442 kts | 267° |
| 2026-05-07 17:21 | 55.82400 | 40.49952 | 35761 ft | 442 kts | 267° |
| 2026-05-07 17:21 | 55.82177 | 40.44512 | 35138 ft | 441 kts | 268° |
| 2026-05-07 17:21 | 55.81952 | 40.39074 | 34439 ft | 441 kts | 268° |
| 2026-05-07 17:22 | 55.81730 | 40.33674 | 33721 ft | 442 kts | 267° |
| 2026-05-07 17:22 | 55.81502 | 40.28194 | 32993 ft | 446 kts | 267° |
| 2026-05-07 17:22 | 55.81272 | 40.22719 | 32279 ft | 449 kts | 267° |
| 2026-05-07 17:22 | 55.81038 | 40.17235 | 31573 ft | 451 kts | 267° |
| 2026-05-07 17:23 | 55.80798 | 40.11644 | 30857 ft | 453 kts | 266° |
| 2026-05-07 17:23 | 55.80557 | 40.06083 | 30101 ft | 457 kts | 267° |
| 2026-05-07 17:23 | 55.80309 | 40.00494 | 29343 ft | 460 kts | 266° |
| 2026-05-07 17:23 | 55.80057 | 39.94804 | 28593 ft | 461 kts | 266° |
| 2026-05-07 17:24 | 55.79803 | 39.89172 | 27841 ft | 462 kts | 266° |
| 2026-05-07 17:24 | 55.79543 | 39.83519 | 27315 ft | 464 kts | 266° |
| 2026-05-07 17:24 | 55.79256 | 39.77858 | 26805 ft | 466 kts | 265° |
| 2026-05-07 17:24 | 55.78882 | 39.72083 | 26264 ft | 467 kts | 264° |
| 2026-05-07 17:25 | 55.78491 | 39.66421 | 25724 ft | 468 kts | 263° |
| 2026-05-07 17:25 | 55.78096 | 39.60718 | 25174 ft | 469 kts | 264° |
| 2026-05-07 17:25 | 55.77702 | 39.55007 | 24623 ft | 469 kts | 263° |
| 2026-05-07 17:25 | 55.77306 | 39.49218 | 24059 ft | 469 kts | 263° |
| 2026-05-07 17:26 | 55.76920 | 39.43572 | 23846 ft | 468 kts | 263° |
| 2026-05-07 17:26 | 55.76523 | 39.37794 | 23794 ft | 469 kts | 263° |
| 2026-05-07 17:26 | 55.76126 | 39.32097 | 23880 ft | 469 kts | 262° |
| 2026-05-07 17:26 | 55.75722 | 39.26339 | 24004 ft | 470 kts | 262° |
| 2026-05-07 17:27 | 55.75319 | 39.20626 | 24136 ft | 472 kts | 262° |
| 2026-05-07 17:27 | 55.74911 | 39.14858 | 24182 ft | 468 kts | 262° |
| 2026-05-07 17:27 | 55.74504 | 39.09188 | 23983 ft | 467 kts | 262° |
| 2026-05-07 17:27 | 55.74089 | 39.03453 | 23887 ft | 469 kts | 262° |
| 2026-05-07 17:28 | 55.73685 | 38.97750 | 23445 ft | 467 kts | 263° |
| 2026-05-07 17:28 | 55.73525 | 38.92027 | 22893 ft | 462 kts | 269° |
| 2026-05-07 17:28 | 55.73690 | 38.86392 | 22808 ft | 462 kts | 273° |
| 2026-05-07 17:28 | 55.73957 | 38.80705 | 22260 ft | 460 kts | 274° |
| 2026-05-07 17:29 | 55.74237 | 38.75181 | 21857 ft | 455 kts | 274° |
| 2026-05-07 17:29 | 55.74518 | 38.69634 | 21410 ft | 448 kts | 274° |
| 2026-05-07 17:29 | 55.74788 | 38.64157 | 20705 ft | 442 kts | 274° |
| 2026-05-07 17:29 | 55.75212 | 38.58848 | 20131 ft | 441 kts | 284° |
| 2026-05-07 17:30 | 55.76433 | 38.53828 | 19910 ft | 445 kts | 299° |
| 2026-05-07 17:30 | 55.78171 | 38.49355 | 19882 ft | 447 kts | 303° |
| 2026-05-07 17:30 | 55.79976 | 38.44832 | 19865 ft | 446 kts | 303° |
| 2026-05-07 17:30 | 55.81747 | 38.40383 | 19881 ft | 446 kts | 303° |
| 2026-05-07 17:31 | 55.83586 | 38.35910 | 19874 ft | 446 kts | 305° |
| 2026-05-07 17:31 | 55.85468 | 38.31554 | 19705 ft | 447 kts | 304° |
| 2026-05-07 17:31 | 55.87357 | 38.27211 | 19259 ft | 442 kts | 305° |
| 2026-05-07 17:31 | 55.89219 | 38.22932 | 18825 ft | 436 kts | 304° |
| 2026-05-07 17:32 | 55.91042 | 38.18732 | 18195 ft | 431 kts | 305° |
| 2026-05-07 17:32 | 55.92867 | 38.14508 | 17623 ft | 429 kts | 304° |
| 2026-05-07 17:32 | 55.94664 | 38.10344 | 17090 ft | 426 kts | 304° |
| 2026-05-07 17:32 | 55.95867 | 38.07545 | 16750 ft | 423 kts | 304° |
| 2026-05-07 17:33 | 55.98239 | 38.02023 | 16095 ft | 419 kts | 304° |
| 2026-05-07 17:33 | 55.99899 | 37.97818 | 15784 ft | 413 kts | 296° |
| 2026-05-07 17:33 | 56.00873 | 37.93041 | 15814 ft | 411 kts | 281° |
| 2026-05-07 17:33 | 56.01398 | 37.88036 | 15828 ft | 411 kts | 279° |
| 2026-05-07 17:34 | 56.03358 | 38.63980 | 15513 ft | 412 kts | 285° |
| 2026-05-07 17:34 | 56.04351 | 38.59155 | 15267 ft | 410 kts | 285° |
| 2026-05-07 17:34 | 56.04861 | 38.54191 | 15015 ft | 405 kts | 272° |
| 2026-05-07 17:34 | 56.04634 | 38.49249 | 14763 ft | 402 kts | 257° |
| 2026-05-07 17:35 | 56.03727 | 38.44540 | 14518 ft | 400 kts | 248° |
| 2026-05-07 17:35 | 56.02629 | 38.40001 | 14266 ft | 398 kts | 248° |
| 2026-05-07 17:35 | 56.01579 | 38.35492 | 14024 ft | 397 kts | 249° |
| 2026-05-07 17:35 | 56.00567 | 38.30935 | 13777 ft | 395 kts | 249° |
| 2026-05-07 17:36 | 55.99588 | 38.26333 | 13533 ft | 394 kts | 249° |
| 2026-05-07 17:36 | 55.98646 | 38.21749 | 13288 ft | 392 kts | 250° |
| 2026-05-07 17:36 | 55.97733 | 38.17195 | 13040 ft | 392 kts | 251° |
| 2026-05-07 17:36 | 55.97114 | 38.12455 | 12764 ft | 392 kts | 266° |
| 2026-05-07 17:37 | 55.97435 | 38.07675 | 12532 ft | 395 kts | 283° |
| 2026-05-07 17:37 | 55.98559 | 38.03191 | 12286 ft | 399 kts | 299° |
| 2026-05-07 17:37 | 56.00340 | 37.99462 | 12052 ft | 405 kts | 313° |
| 2026-05-07 17:37 | 56.02459 | 37.96090 | 11804 ft | 405 kts | 315° |
| 2026-05-07 17:38 | 56.04532 | 37.92815 | 11564 ft | 396 kts | 315° |
| 2026-05-07 17:38 | 56.06546 | 37.89621 | 11303 ft | 380 kts | 314° |
| 2026-05-07 17:38 | 56.08488 | 37.86523 | 11023 ft | 361 kts | 314° |
| 2026-05-07 17:38 | 56.10280 | 37.83662 | 10779 ft | 332 kts | 313° |
| 2026-05-07 17:39 | 56.11933 | 37.81027 | 10526 ft | 307 kts | 313° |
| 2026-05-07 17:39 | 56.13462 | 37.78583 | 10271 ft | 285 kts | 313° |
| 2026-05-07 17:39 | 56.14884 | 37.76294 | 10022 ft | 266 kts | 312° |
| 2026-05-07 17:39 | 56.16239 | 37.74096 | 9800 ft | 263 kts | 311° |
| 2026-05-07 17:40 | 56.17583 | 37.71910 | 9644 ft | 259 kts | 311° |
| 2026-05-07 17:40 | 56.18887 | 37.69788 | 9488 ft | 249 kts | 311° |
| 2026-05-07 17:40 | 56.20135 | 37.67757 | 9352 ft | 238 kts | 311° |
| 2026-05-07 17:40 | 56.21350 | 37.65775 | 9231 ft | 235 kts | 311° |
| 2026-05-07 17:41 | 56.22557 | 37.63800 | 9112 ft | 235 kts | 311° |
| 2026-05-07 17:41 | 56.23773 | 37.61805 | 8994 ft | 235 kts | 311° |
| 2026-05-07 17:41 | 56.24971 | 37.59845 | 8972 ft | 235 kts | 311° |
| 2026-05-07 17:41 | 56.26192 | 37.57851 | 8972 ft | 236 kts | 311° |
| 2026-05-07 17:42 | 56.27398 | 37.55879 | 8963 ft | 236 kts | 311° |
| 2026-05-07 17:42 | 56.28613 | 37.53888 | 8973 ft | 236 kts | 311° |
| 2026-05-07 17:42 | 56.29812 | 37.51907 | 8931 ft | 235 kts | 308° |
| 2026-05-07 17:42 | 56.30701 | 37.49450 | 8815 ft | 241 kts | 284° |
| 2026-05-07 17:43 | 56.30953 | 37.46385 | 8677 ft | 254 kts | 263° |
| 2026-05-07 17:43 | 56.30499 | 37.43368 | 8525 ft | 253 kts | 241° |
| 2026-05-07 17:43 | 56.29535 | 37.40703 | 8395 ft | 254 kts | 236° |
| 2026-05-07 17:43 | 56.28553 | 37.38097 | 8224 ft | 253 kts | 236° |
| 2026-05-07 17:44 | 56.27558 | 37.35445 | 7995 ft | 253 kts | 236° |
| 2026-05-07 17:44 | 56.26583 | 37.32876 | 7730 ft | 252 kts | 232° |
| 2026-05-07 17:44 | 56.25234 | 37.30883 | 7401 ft | 253 kts | 206° |
| 2026-05-07 17:44 | 56.23522 | 37.30246 | 7076 ft | 259 kts | 182° |
| 2026-05-07 17:45 | 56.21766 | 37.30912 | 6889 ft | 255 kts | 169° |
| 2026-05-07 17:45 | 56.20121 | 37.31764 | 6869 ft | 239 kts | 171° |
| 2026-05-07 17:45 | 56.18552 | 37.32570 | 6856 ft | 230 kts | 167° |
| 2026-05-07 17:45 | 56.17194 | 37.34204 | 6864 ft | 249 kts | 133° |
| 2026-05-07 17:46 | 56.16523 | 37.37128 | 6729 ft | 266 kts | 98° |
| 2026-05-07 17:46 | 56.16802 | 37.40423 | 6437 ft | 271 kts | 75° |
| 2026-05-07 17:46 | 56.17362 | 37.43610 | 6173 ft | 269 kts | 75° |
| 2026-05-07 17:46 | 56.17905 | 37.46775 | 5925 ft | 267 kts | 75° |
| 2026-05-07 17:47 | 56.18417 | 37.49951 | 5670 ft | 265 kts | 76° |
| 2026-05-07 17:47 | 56.18901 | 37.53107 | 5435 ft | 263 kts | 76° |
| 2026-05-07 17:47 | 56.19374 | 37.56291 | 5170 ft | 261 kts | 79° |
| 2026-05-07 17:47 | 56.19385 | 37.59421 | 4884 ft | 250 kts | 115° |
| 2026-05-07 17:48 | 56.18454 | 37.61818 | 4905 ft | 231 kts | 142° |
| 2026-05-07 17:48 | 56.17250 | 37.63772 | 4933 ft | 235 kts | 144° |
| 2026-05-07 17:48 | 56.16042 | 37.65747 | 4939 ft | 236 kts | 143° |
| 2026-05-07 17:48 | 56.14876 | 37.67766 | 4916 ft | 230 kts | 142° |
| 2026-05-07 17:49 | 56.13752 | 37.69778 | 4673 ft | 229 kts | 141° |
| 2026-05-07 17:49 | 56.12631 | 37.71813 | 4405 ft | 225 kts | 141° |
| 2026-05-07 17:49 | 56.11552 | 37.73783 | 4180 ft | 222 kts | 141° |
| 2026-05-07 17:49 | 56.10489 | 37.75728 | 3999 ft | 216 kts | 140° |
| 2026-05-07 17:50 | 56.09338 | 37.77354 | 3935 ft | 204 kts | 168° |
| 2026-05-07 17:50 | 56.08015 | 37.77363 | 3941 ft | 187 kts | 204° |
| 2026-05-07 17:50 | 56.06788 | 37.76542 | 3963 ft | 191 kts | 205° |
| 2026-05-07 17:50 | 56.05536 | 37.75753 | 3932 ft | 193 kts | 204° |
| 2026-05-07 17:51 | 56.04249 | 37.74984 | 3673 ft | 193 kts | 203° |
| 2026-05-07 17:51 | 56.02991 | 37.74243 | 3444 ft | 193 kts | 206° |
| 2026-05-07 17:51 | 56.01912 | 37.72939 | 3152 ft | 186 kts | 239° |
| 2026-05-07 17:51 | 56.01451 | 37.70827 | 2939 ft | 182 kts | 257° |
| 2026-05-07 17:52 | 56.01160 | 37.68619 | 2737 ft | 185 kts | 256° |
| 2026-05-07 17:52 | 56.00841 | 37.66409 | 2538 ft | 184 kts | 255° |
| 2026-05-07 17:52 | 56.00517 | 37.64180 | 2490 ft | 185 kts | 254° |
| 2026-05-07 17:52 | 56.00219 | 37.61989 | 2575 ft | 174 kts | 256° |
| 2026-05-07 17:53 | 55.99932 | 37.60000 | 2409 ft | 159 kts | 258° |
| 2026-05-07 17:53 | 55.99661 | 37.58176 | 2172 ft | 148 kts | 254° |
| 2026-05-07 17:53 | 55.99397 | 37.56463 | 1954 ft | 141 kts | 260° |
| 2026-05-07 17:53 | 55.99144 | 37.54783 | 1779 ft | 140 kts | 253° |
| 2026-05-07 17:54 | 55.98885 | 37.53090 | 1599 ft | 141 kts | 258° |
| 2026-05-07 17:54 | 55.98631 | 37.51425 | 1421 ft | 140 kts | 260° |
| 2026-05-07 17:54 | 55.98378 | 37.49755 | 1231 ft | 139 kts | 258° |
| 2026-05-07 17:54 | 55.98131 | 37.48078 | 1058 ft | 139 kts | 258° |
| 2026-05-07 17:55 | 55.97866 | 37.46427 | 865 ft | 138 kts | 258° |
| 2026-05-07 17:55 | 55.97623 | 37.44791 | 679 ft | 135 kts | 258° |
| 2026-05-07 17:55 | 55.97400 | 37.43231 | 601 ft | 116 kts | 255° |
| 2026-05-07 17:55 | 55.97235 | 37.42138 | 610 ft | 66 kts | 254° |
| 2026-05-07 17:56 | 55.97154 | 37.41594 | 615 ft | 25 kts | 255° |
| 2026-05-07 17:56 | 55.97147 | 37.41365 | 616 ft | 15 kts | 313° |
| 2026-05-07 17:56 | 55.97243 | 37.41304 | 617 ft | 14 kts | 347° |
| 2026-05-07 17:56 | 55.97367 | 37.41246 | 620 ft | 27 kts | 345° |
| 2026-05-07 17:57 | 55.97476 | 37.41190 | 622 ft | 0 kts | 351° |
| 2026-05-07 17:58 | 55.97518 | 37.41177 | 622 ft | 7 kts | 351° |
| 2026-05-07 17:59 | 55.97572 | 37.41155 | 622 ft | 8 kts | 342° |
| 2026-05-07 17:59 | 55.97633 | 37.41179 | 622 ft | 11 kts | 60° |
| 2026-05-07 17:59 | 55.97654 | 37.41315 | 622 ft | 6 kts | 75° |
| 2026-05-07 17:59 | 55.97654 | 37.41318 | 622 ft | 0 kts | 75° |
| 2026-05-07 18:00 | 55.97655 | 37.41326 | 622 ft | 2 kts | 75° |
| 2026-05-07 18:00 | 55.97674 | 37.41445 | 622 ft | 18 kts | 75° |
| 2026-05-07 18:00 | 55.97707 | 37.41666 | 620 ft | 12 kts | 78° |
| 2026-05-07 18:00 | 55.97726 | 37.41806 | 619 ft | 5 kts | 72° |
| 2026-05-07 18:01 | 55.97762 | 37.41826 | 619 ft | 6 kts | 345° |
| 2026-05-07 18:01 | 55.97788 | 37.41814 | 619 ft | 0 kts | 344° |
| 2026-05-07 18:01 | 55.97792 | 37.41811 | 619 ft | 0 kts | 345° |
| 2026-05-07 18:01 | 55.97796 | 37.41810 | 619 ft | 0 kts | 345° |